Batumi International Airport
UGSB : rendu visible

Aérodrome :











RETROUVEZ-NOUS SUR...

 
LOGIN :

S'inscrire | Disclaimer

   EN    FR    IT 

 









Légende :    VFR   VFR Marginal   IFR   IFR Intensif   IFR Très Intensif
Visi : 
Plafond : 
>= 8 km
>= 3000ft
5 à 8 km
1000 à 3000 ft
1500m à 5 km
500 à 1000 ft
800 à 1500m
200 à 500 ft
< 800m
< 200 ft
Symboles :   Orages  Brouillard  Fortes neiges  Fortes précipitations  Vent > 20 kt







- Altitude de l'aérodrome : 105 ft
- Code IATA : BUS


UGSB - Batumi International

DERNIER METAR :
  • 170200Z 12015KT 9999 SCT110 10/M03 Q1022 R13/CLRD70 NOSIG

METARs EXPIRÉS :
  • 170130Z 14017KT 9999 SCT100 10/M03 Q1022 R13/CLRD70 NOSIG
  • 170100Z 14012KT 9999 SCT100 09/M02 Q1022 R13/CLRD70 NOSIG
  • 170030Z 15003KT 120V180 9999 SCT110 08/04 Q1022 R13/70D NOSIG
  • 170000Z 16004KT 9999 SCT120 08/04 Q1023 R13/70D NOSIG

TAF TAF UGSB
Valide du 17 à 00h jusqu'au 18 à 00h UTC


162300Z 1700/1724 13018KT 9999 SCT100 TX14/1711Z TN08/1701Z
BECMG 1708/1710 36007KT
BECMG 1715/1718 13014KT
FIR UGGG / Asie



MET'MAP, la Météo Aéronautique d'un coup d'oeil ! - Copyright ORBIFLY Décembre 2007 - Disclaimer

ORBIFLY MET'MAP TEAM :

Programmation & Développement : Alexandra Zaïnal
Conception & Développement : Baudouin d'Aumeries
Co-Programmation & Développement : Marc-Olivier Méhu
Soutien technique & logistique : Manuel Goepfert

Contact : metmap@orbifly.com




SOURCES & CREDITS :

   NOAA       Earth
Advisory